Time;durP1;ratioP1;P1;durP2;ratioP2;P2;SDS_P1;SDS_P2;PMS_P1;PMS_P2;Temp;Humidity;BMP_temperature;BMP_pressure;BME280_temperature;BME280_humidity;BME280_pressure;Samples;Min_cycle;Max_cycle;Signal;HPM_P1;HPM_P2
2020/12/08 06:17:13;;;;;;;25.37;13.47;;;2.70;98.20;;;;;;5089048;22;20046;-81
2020/12/08 06:19:39;;;;;;;24.50;12.55;;;2.70;97.80;;;;;;5034047;28;20287;-82
2020/12/08 06:22:14;;;;;;;23.67;12.27;;;2.70;97.90;;;;;;5054179;28;20165;-82
2020/12/08 06:24:54;;;;;;;;;;;2.80;97.90;;;;;;5053820;28;20049;-80
2020/12/08 06:27:22;;;;;;;27.67;14.57;;;2.90;97.90;;;;;;5053771;28;19921;-82
2020/12/08 06:29:53;;;;;;;26.20;13.43;;;2.90;97.80;;;;;;5056683;28;20068;-81
2020/12/08 06:32:28;;;;;;;25.83;13.68;;;2.90;97.80;;;;;;5055208;28;20033;-82
2020/12/08 06:35:06;;;;;;;;;;;2.90;97.90;;;;;;5056369;28;20045;-82
2020/12/08 06:37:33;;;;;;;24.55;13.18;;;2.90;97.70;;;;;;5056000;28;19921;-81
2020/12/08 06:40:12;;;;;;;25.27;12.48;;;2.90;97.60;;;;;;5040171;28;20057;-83
2020/12/08 06:42:39;;;;;;;24.13;12.35;;;2.80;97.70;;;;;;5059173;28;20056;-83
2020/12/08 06:45:08;;;;;;;24.23;12.13;;;2.90;97.60;;;;;;5060076;28;20044;-82
2020/12/08 06:47:36;;;;;;;21.85;11.45;;;2.90;97.60;;;;;;5061387;28;20047;-82
2020/12/08 06:50:04;;;;;;;23.77;12.60;;;2.90;97.40;;;;;;5045372;28;20033;-82
2020/12/08 06:55:06;;;;;;;26.38;13.20;;;2.90;97.40;;;;;;5242599;23;20029;-81
2020/12/08 06:57:33;;;;;;;25.23;12.45;;;2.70;97.30;;;;;;5062248;28;20037;-83
2020/12/08 07:00:09;;;;;;;24.60;12.88;;;2.70;97.20;;;;;;5045469;28;20042;-80
2020/12/08 07:02:49;;;;;;;25.00;13.05;;;2.70;97.40;;;;;;5061856;28;20101;-80
2020/12/08 07:05:23;;;;;;;27.48;14.68;;;2.60;97.70;;;;;;5061837;28;20063;-80
2020/12/08 07:07:50;;;;;;;29.85;15.73;;;2.60;98.10;;;;;;5061494;28;20056;-81
2020/12/08 07:10:19;;;;;;;27.17;13.90;;;2.60;98.50;;;;;;5060226;28;20080;-82
2020/12/08 07:12:49;;;;;;;26.60;14.27;;;2.70;98.20;;;;;;5032219;28;20053;-80
2020/12/08 07:15:20;;;;;;;28.88;14.60;;;2.60;98.10;;;;;;5045696;28;20061;-80
2020/12/08 07:17:56;;;;;;;27.10;14.35;;;2.60;98.10;;;;;;5052082;28;20083;-81
2020/12/08 07:20:24;;;;;;;29.08;14.95;;;2.60;98.10;;;;;;5060315;28;20064;-81
2020/12/08 08:12:06;;;;;;;30.13;14.43;;;2.50;98.10;;;;;;5852482;23;20054;-79
2020/12/08 08:14:32;;;;;;;26.00;13.75;;;2.60;98.00;;;;;;5056286;28;20049;-81
2020/12/08 08:16:59;;;;;;;24.42;13.13;;;2.60;98.10;;;;;;5049272;28;20045;-81
2020/12/08 08:19:26;;;;;;;26.80;13.93;;;2.70;98.20;;;;;;5047193;28;20077;-81
2020/12/08 08:21:53;;;;;;;25.42;13.27;;;2.80;98.10;;;;;;5050719;28;20048;-80
2020/12/08 08:24:19;;;;;;;27.20;13.45;;;2.80;97.80;;;;;;5050697;28;20490;-79
2020/12/08 08:26:46;;;;;;;24.15;12.45;;;2.80;97.70;;;;;;5057953;28;20137;-82
2020/12/08 08:29:14;;;;;;;26.27;13.00;;;3.00;97.50;;;;;;5060262;28;20044;-82
2020/12/08 08:31:41;;;;;;;24.42;12.93;;;2.60;97.60;;;;;;5059453;28;20029;-82
2020/12/08 08:34:08;;;;;;;28.30;14.07;;;2.70;97.90;;;;;;5058608;28;20079;-83
2020/12/08 08:36:34;;;;;;;28.17;13.75;;;2.80;98.00;;;;;;5058927;28;20080;-82
2020/12/08 08:39:01;;;;;;;26.05;13.00;;;2.60;98.30;;;;;;5059014;28;20427;-80
2020/12/08 08:41:28;;;;;;;26.42;13.55;;;2.40;98.30;;;;;;5055372;28;20526;-76
2020/12/08 08:43:57;;;;;;;57.58;18.48;;;2.60;98.40;;;;;;5035487;28;20056;-82
2020/12/08 08:54:13;;;;;;;30.60;15.27;;;3.00;98.10;;;;;;5773784;23;20069;-81
2020/12/08 08:56:40;;;;;;;29.95;14.82;;;3.00;98.10;;;;;;5053350;28;20061;-82
2020/12/08 08:59:07;;;;;;;31.60;15.27;;;3.00;98.00;;;;;;5053497;28;20049;-80
2020/12/08 09:30:05;;;;;;;34.75;17.85;;;3.10;97.80;;;;;;5376612;23;20063;-91
2020/12/08 09:32:32;;;;;;;32.47;17.23;;;3.20;97.40;;;;;;5046782;28;20053;-88
2020/12/08 09:34:59;;;;;;;33.97;17.75;;;3.30;97.50;;;;;;5032185;28;20084;-92
2020/12/08 09:37:26;;;;;;;36.10;17.23;;;3.40;97.30;;;;;;5046257;28;20060;-93
2020/12/08 09:39:53;;;;;;;32.28;17.48;;;3.40;97.20;;;;;;5044609;28;20068;-93
2020/12/08 09:42:21;;;;;;;29.55;16.17;;;3.60;97.40;;;;;;5033837;28;20050;-90
2020/12/08 09:44:50;;;;;;;31.85;17.13;;;3.70;97.10;;;;;;5024169;28;20432;-92
2020/12/08 09:47:18;;;;;;;32.58;17.33;;;3.70;97.00;;;;;;5005821;28;20042;-91
2020/12/08 09:49:47;;;;;;;34.92;17.92;;;3.70;96.70;;;;;;5029205;28;20100;-93
2020/12/08 09:52:14;;;;;;;31.67;17.38;;;3.70;96.60;;;;;;5031771;28;20050;-94
2020/12/08 09:54:41;;;;;;;34.70;17.88;;;3.90;96.60;;;;;;5035085;28;20038;-91
2020/12/08 09:57:09;;;;;;;33.22;17.73;;;3.80;96.80;;;;;;5038712;28;20072;-90
2020/12/08 09:59:36;;;;;;;31.17;17.00;;;3.90;96.80;;;;;;5022178;28;20100;-94
2020/12/08 10:02:06;;;;;;;33.33;17.98;;;3.90;96.60;;;;;;5044247;28;20054;-91
2020/12/08 10:04:33;;;;;;;32.70;17.55;;;3.90;96.60;;;;;;5020421;28;20049;-89
2020/12/08 10:07:00;;;;;;;31.20;17.45;;;3.90;96.70;;;;;;5023562;28;20081;-90
2020/12/08 10:09:27;;;;;;;33.15;17.42;;;4.00;96.50;;;;;;5020101;28;20045;-91
2020/12/08 10:11:54;;;;;;;35.08;18.67;;;4.00;96.30;;;;;;5030438;28;20144;-92
2020/12/08 10:14:21;;;;;;;36.03;17.52;;;4.10;96.50;;;;;;5036893;28;20069;-93
2020/12/08 10:16:51;;;;;;;32.85;18.02;;;4.00;96.10;;;;;;5021475;28;20149;-91
2020/12/08 10:19:18;;;;;;;32.90;17.08;;;4.10;95.80;;;;;;5032374;28;20084;-91
2020/12/08 10:21:45;;;;;;;31.67;16.90;;;4.10;95.80;;;;;;5017585;28;20129;-92
2020/12/08 10:24:12;;;;;;;31.73;16.60;;;4.20;95.60;;;;;;5030680;28;20076;-88
2020/12/08 10:26:38;;;;;;;33.05;17.17;;;4.20;95.40;;;;;;5034987;28;20485;-92
2020/12/08 10:29:05;;;;;;;31.58;16.85;;;4.30;95.20;;;;;;5029333;28;20085;-91
2020/12/08 10:31:32;;;;;;;35.25;17.63;;;4.30;95.10;;;;;;5030939;28;20113;-90
2020/12/08 10:33:59;;;;;;;31.13;16.52;;;4.50;95.00;;;;;;4989257;28;20125;-89
2020/12/08 10:36:26;;;;;;;29.73;16.20;;;4.40;94.80;;;;;;5034577;28;20122;-92
2020/12/08 10:38:53;;;;;;;31.17;16.70;;;4.40;94.50;;;;;;5010418;28;20140;-90
2020/12/08 10:41:21;;;;;;;30.50;15.95;;;4.40;94.50;;;;;;5043325;28;20113;-89
2020/12/08 10:43:48;;;;;;;30.38;16.98;;;4.40;94.40;;;;;;5004385;28;20046;-92
2020/12/08 10:46:15;;;;;;;31.55;16.98;;;4.50;94.60;;;;;;5001854;28;20129;-92
2020/12/08 10:48:41;;;;;;;33.67;16.65;;;4.50;94.70;;;;;;5014645;28;20129;-91
2020/12/08 10:51:08;;;;;;;33.95;17.52;;;4.50;94.80;;;;;;5030045;28;20073;-88
2020/12/08 10:53:35;;;;;;;31.67;17.27;;;4.50;95.00;;;;;;5019951;28;20160;-87
2020/12/08 10:56:02;;;;;;;32.35;17.13;;;4.60;95.00;;;;;;5014320;28;20056;-91
2020/12/08 10:58:29;;;;;;;32.92;17.65;;;4.60;94.70;;;;;;5021838;28;20487;-89
2020/12/08 11:00:55;;;;;;;31.45;17.00;;;4.60;94.80;;;;;;5022775;28;20140;-92
2020/12/08 11:03:22;;;;;;;34.15;18.17;;;4.70;94.50;;;;;;5018166;28;20077;-90
2020/12/08 11:05:49;;;;;;;32.78;16.90;;;4.70;94.60;;;;;;4998791;28;20567;-89
2020/12/08 11:08:16;;;;;;;33.88;18.50;;;4.70;94.70;;;;;;5013460;28;20141;-87
2020/12/08 11:10:43;;;;;;;31.20;17.42;;;4.70;94.60;;;;;;5014799;28;20161;-86
2020/12/08 11:13:10;;;;;;;30.98;17.10;;;4.70;94.50;;;;;;5029724;28;20125;-87
2020/12/08 11:15:37;;;;;;;31.98;17.52;;;4.80;94.50;;;;;;5032289;28;20053;-86
2020/12/08 11:18:04;;;;;;;30.63;16.65;;;4.80;94.30;;;;;;5021601;28;20048;-87
2020/12/08 11:20:30;;;;;;;31.73;17.23;;;4.90;94.10;;;;;;5014618;28;20140;-84
2020/12/08 11:22:57;;;;;;;31.90;17.55;;;4.90;93.90;;;;;;5030660;28;20575;-91
2020/12/08 11:25:23;;;;;;;29.80;16.85;;;4.70;93.80;;;;;;5034754;28;20065;-95
2020/12/08 11:27:50;;;;;;;28.83;16.58;;;4.90;94.10;;;;;;5032384;28;20522;-90
2020/12/08 11:30:17;;;;;;;29.45;16.35;;;5.00;93.30;;;;;;5020984;28;20137;-90
2020/12/08 11:32:44;;;;;;;27.13;15.07;;;5.10;93.30;;;;;;5036188;28;20105;-88
2020/12/08 11:35:11;;;;;;;28.10;16.00;;;5.20;93.10;;;;;;5020088;28;20136;-95
2020/12/08 11:37:38;;;;;;;28.38;15.52;;;5.30;92.70;;;;;;5028083;28;20076;-91
2020/12/08 11:40:05;;;;;;;26.08;15.05;;;5.40;92.10;;;;;;5034825;28;20046;-87
2020/12/08 11:42:33;;;;;;;26.98;15.23;;;5.50;91.70;;;;;;5049340;28;20124;-91
2020/12/08 11:45:00;;;;;;;28.67;15.70;;;5.60;91.50;;;;;;5036142;28;20056;-92
2020/12/08 11:47:29;;;;;;;48.42;25.20;;;5.70;91.30;;;;;;5036082;28;20037;-88
2020/12/08 11:49:58;;;;;;;31.92;17.38;;;5.70;91.00;;;;;;5033215;28;20077;-89
2020/12/08 11:52:25;;;;;;;27.25;14.65;;;5.80;90.60;;;;;;5032334;28;20053;-92
2020/12/08 11:54:53;;;;;;;27.15;15.65;;;5.80;90.80;;;;;;5008255;28;20053;-89
2020/12/08 11:57:20;;;;;;;25.70;14.98;;;5.90;90.60;;;;;;5026865;28;20050;-90
2020/12/08 11:59:48;;;;;;;24.30;15.15;;;6.00;90.10;;;;;;5029185;28;20128;-92
2020/12/08 12:02:14;;;;;;;27.77;15.05;;;6.10;89.90;;;;;;5036213;28;20046;-95
2020/12/08 12:04:42;;;;;;;27.48;16.13;;;6.20;90.40;;;;;;4996977;28;20050;-89
2020/12/08 12:07:08;;;;;;;25.30;15.00;;;6.20;89.40;;;;;;5031964;28;20124;-92
2020/12/08 12:09:35;;;;;;;22.50;13.70;;;6.10;89.60;;;;;;5019588;28;20064;-90
2020/12/08 12:12:02;;;;;;;24.88;14.73;;;6.20;89.60;;;;;;5040650;28;20056;-92
2020/12/08 12:14:29;;;;;;;23.67;13.85;;;6.20;88.50;;;;;;5012714;28;20137;-93
2020/12/08 12:16:56;;;;;;;24.80;14.25;;;6.30;87.70;;;;;;5018504;28;20681;-93
2020/12/08 12:19:22;;;;;;;24.42;14.35;;;6.30;87.20;;;;;;5034570;28;20081;-91
2020/12/08 12:21:50;;;;;;;24.92;14.40;;;6.40;88.30;;;;;;5041871;28;20087;-95
2020/12/08 12:24:17;;;;;;;25.30;14.43;;;6.40;87.80;;;;;;5042454;28;20475;-91
2020/12/08 12:26:43;;;;;;;27.30;14.48;;;6.50;88.50;;;;;;5037924;28;20085;-88
2020/12/08 12:29:10;;;;;;;23.33;13.98;;;6.40;88.00;;;;;;5033111;28;20041;-93
2020/12/08 12:31:37;;;;;;;23.73;13.52;;;6.40;88.10;;;;;;5013580;28;20559;-90
2020/12/08 12:34:03;;;;;;;25.10;14.18;;;6.50;88.00;;;;;;5015751;28;20096;-89
2020/12/08 12:36:30;;;;;;;25.13;14.00;;;6.40;88.30;;;;;;5020025;28;20073;-91
2020/12/08 12:38:58;;;;;;;25.45;14.15;;;6.40;88.40;;;;;;5032265;28;20149;-94
2020/12/08 12:41:27;;;;;;;21.67;13.05;;;6.20;88.40;;;;;;5035405;28;20049;-92
2020/12/08 12:43:54;;;;;;;22.02;13.45;;;6.20;89.00;;;;;;5034339;28;20442;-93
2020/12/08 12:46:21;;;;;;;23.92;13.63;;;6.30;88.90;;;;;;5035004;28;20133;-91
2020/12/08 12:48:48;;;;;;;21.85;13.15;;;6.10;89.20;;;;;;5034823;28;20149;-91
2020/12/08 12:51:15;;;;;;;23.23;13.57;;;6.30;90.10;;;;;;5034611;28;20400;-90
2020/12/08 12:53:41;;;;;;;22.98;13.63;;;6.20;88.90;;;;;;5016801;28;20132;-91
2020/12/08 12:56:09;;;;;;;24.38;13.57;;;6.10;88.90;;;;;;5034606;28;20455;-95
2020/12/08 12:58:35;;;;;;;24.35;13.88;;;6.20;89.70;;;;;;5026118;28;20092;-96
2020/12/08 13:01:02;;;;;;;22.83;13.25;;;6.30;89.00;;;;;;5021923;28;20128;-96
2020/12/08 13:03:28;;;;;;;22.42;12.75;;;6.30;88.50;;;;;;5028623;28;20100;-93
2020/12/08 13:05:55;;;;;;;22.77;12.98;;;6.30;87.60;;;;;;5034835;28;20460;-96
2020/12/08 13:08:22;;;;;;;23.15;13.00;;;6.10;87.70;;;;;;5025215;28;20125;-91
2020/12/08 13:10:49;;;;;;;22.02;13.45;;;6.30;87.50;;;;;;5041731;28;20558;-96
2020/12/08 13:13:18;;;;;;;20.10;12.23;;;6.20;87.60;;;;;;4997960;28;20050;-92
2020/12/08 13:15:44;;;;;;;21.80;12.65;;;6.20;87.70;;;;;;5019198;28;20136;-93
2020/12/08 13:18:11;;;;;;;21.23;12.32;;;6.30;87.00;;;;;;5036158;28;20543;-93
2020/12/08 13:20:38;;;;;;;21.02;12.60;;;6.30;87.20;;;;;;5037512;28;20533;-89
2020/12/08 13:23:04;;;;;;;22.65;12.90;;;6.30;86.80;;;;;;5036265;28;20128;-85
2020/12/08 13:25:31;;;;;;;22.15;12.77;;;6.20;87.90;;;;;;5034243;28;20062;-92
2020/12/08 13:27:58;;;;;;;40.45;22.33;;;6.30;86.80;;;;;;5001581;28;20447;-93
2020/12/08 13:30:26;;;;;;;24.45;13.27;;;6.30;87.20;;;;;;5036628;28;20053;-89
2020/12/08 13:32:54;;;;;;;21.88;13.15;;;6.40;86.60;;;;;;5037286;28;20084;-96
2020/12/08 13:35:21;;;;;;;21.13;11.93;;;6.50;86.60;;;;;;5039434;28;20029;-93
2020/12/08 13:37:48;;;;;;;23.73;13.55;;;6.60;86.00;;;;;;5035307;28;20045;-92
2020/12/08 13:40:16;;;;;;;22.08;12.75;;;6.90;84.60;;;;;;5034736;28;20116;-93
2020/12/08 13:42:43;;;;;;;25.75;12.95;;;7.10;82.40;;;;;;5017216;28;20097;-93
2020/12/08 13:45:10;;;;;;;21.38;12.93;;;7.20;81.90;;;;;;5022058;28;20053;-94
2020/12/08 13:47:38;;;;;;;22.67;13.63;;;7.20;82.70;;;;;;5035879;28;20136;-92
2020/12/08 13:50:05;;;;;;;21.55;13.15;;;7.00;82.20;;;;;;5034969;28;20562;-96
2020/12/08 13:52:33;;;;;;;24.42;13.90;;;6.90;81.70;;;;;;5034402;28;20048;-93
2020/12/08 13:54:59;;;;;;;23.10;13.07;;;6.80;83.10;;;;;;5029976;28;20109;-92
2020/12/08 13:57:26;;;;;;;22.17;13.18;;;6.70;84.20;;;;;;5035195;28;20076;-92
2020/12/08 13:59:52;;;;;;;24.45;13.65;;;6.60;84.80;;;;;;5035827;28;20080;-86
2020/12/08 14:02:19;;;;;;;23.63;13.25;;;6.60;84.70;;;;;;5034556;28;20073;-89
2020/12/08 14:04:47;;;;;;;24.38;12.40;;;6.60;85.80;;;;;;5033490;28;20124;-89
2020/12/08 14:07:15;;;;;;;22.35;13.57;;;6.50;85.80;;;;;;5033981;28;20471;-86
2020/12/08 14:09:41;;;;;;;24.25;13.07;;;6.50;86.00;;;;;;5035040;28;20132;-89
2020/12/08 14:12:08;;;;;;;24.90;13.77;;;6.50;86.10;;;;;;5030237;28;20059;-87
2020/12/08 14:14:34;;;;;;;22.35;12.73;;;6.40;85.30;;;;;;5026871;28;20128;-86
2020/12/08 14:17:01;;;;;;;22.30;12.88;;;6.50;86.00;;;;;;5006870;28;20084;-84
2020/12/08 14:19:28;;;;;;;24.02;13.13;;;6.40;85.90;;;;;;5032230;28;20132;-85
2020/12/08 14:21:55;;;;;;;22.83;13.18;;;6.30;86.50;;;;;;5016848;28;20084;-85
2020/12/08 14:24:24;;;;;;;25.58;13.60;;;6.40;86.50;;;;;;5031740;28;20446;-87
2020/12/08 14:26:51;;;;;;;24.58;13.15;;;6.30;87.40;;;;;;5033522;28;20053;-86
2020/12/08 14:29:18;;;;;;;23.80;13.68;;;6.20;86.80;;;;;;5039282;28;20390;-91
2020/12/08 14:31:45;;;;;;;24.25;13.68;;;6.20;87.00;;;;;;5035152;28;20444;-87
2020/12/08 14:34:12;;;;;;;23.48;13.10;;;6.10;88.00;;;;;;5032618;28;20443;-87
2020/12/08 14:36:40;;;;;;;25.65;13.18;;;6.00;88.40;;;;;;5033359;28;20496;-90
2020/12/08 14:39:08;;;;;;;25.50;12.75;;;6.00;89.30;;;;;;5034380;28;20411;-90
2020/12/08 14:41:35;;;;;;;22.17;11.82;;;6.00;88.70;;;;;;5034087;28;20495;-89
2020/12/08 14:44:03;;;;;;;21.00;12.32;;;5.90;89.90;;;;;;5033538;28;20108;-89
2020/12/08 14:46:31;;;;;;;21.77;11.82;;;5.80;90.10;;;;;;5032453;28;20559;-89
2020/12/08 14:48:59;;;;;;;21.75;12.75;;;5.60;90.30;;;;;;5007149;28;20053;-91
2020/12/08 14:51:26;;;;;;;25.10;14.02;;;5.70;90.50;;;;;;5034134;28;20057;-88
2020/12/08 14:53:54;;;;;;;22.05;13.10;;;5.60;90.50;;;;;;5034425;28;20057;-89
2020/12/08 14:56:23;;;;;;;23.92;13.20;;;5.60;90.80;;;;;;5032873;28;20104;-85
2020/12/08 14:58:51;;;;;;;25.30;13.57;;;5.50;91.80;;;;;;5034346;28;20033;-92
2020/12/08 15:01:18;;;;;;;22.85;12.82;;;5.50;91.10;;;;;;5035114;28;20052;-92
2020/12/08 15:03:45;;;;;;;23.48;12.80;;;5.50;91.10;;;;;;5038542;28;20081;-92
2020/12/08 15:06:13;;;;;;;23.92;13.15;;;5.40;91.00;;;;;;5037771;28;20498;-92
2020/12/08 15:08:40;;;;;;;22.77;12.57;;;5.30;91.10;;;;;;5038267;28;20072;-91
2020/12/08 15:11:08;;;;;;;23.13;12.43;;;5.30;91.30;;;;;;5021508;28;20132;-88
2020/12/08 15:13:36;;;;;;;24.67;12.90;;;5.30;91.40;;;;;;5050600;28;20124;-87
2020/12/08 15:16:03;;;;;;;25.63;12.90;;;5.10;91.60;;;;;;5036221;28;20401;-88
2020/12/08 15:18:31;;;;;;;23.98;13.23;;;5.10;91.60;;;;;;5045104;28;20073;-90
2020/12/08 15:20:58;;;;;;;21.90;12.18;;;5.10;91.70;;;;;;5023465;28;20046;-92
2020/12/08 15:23:24;;;;;;;21.45;12.18;;;5.00;91.70;;;;;;5037873;28;20079;-95
2020/12/08 15:25:51;;;;;;;24.17;12.75;;;5.00;91.80;;;;;;5037775;28;20061;-96
2020/12/08 15:28:18;;;;;;;22.35;12.48;;;4.90;92.00;;;;;;5037301;28;20050;-96
2020/12/08 15:30:46;;;;;;;23.92;11.82;;;4.80;92.10;;;;;;5037769;28;20053;-95
2020/12/08 15:33:13;;;;;;;21.85;11.95;;;4.80;92.30;;;;;;5038237;28;20124;-92
2020/12/08 15:35:39;;;;;;;27.42;13.68;;;4.80;92.40;;;;;;5037937;28;20136;-92
2020/12/08 15:38:08;;;;;;;23.10;12.35;;;4.70;92.50;;;;;;5037910;28;20049;-93
2020/12/08 15:40:35;;;;;;;24.42;12.07;;;4.60;92.60;;;;;;5037651;28;20128;-94
2020/12/08 15:43:02;;;;;;;22.88;12.82;;;4.60;92.60;;;;;;5037162;28;20055;-95
2020/12/08 15:45:29;;;;;;;23.42;12.57;;;4.60;92.70;;;;;;5039242;28;20132;-95
2020/12/08 15:47:56;;;;;;;21.40;12.85;;;4.60;92.80;;;;;;5024863;28;20053;-96
2020/12/08 15:50:23;;;;;;;22.77;12.10;;;4.60;92.90;;;;;;5026694;28;20049;-95
2020/12/08 15:52:51;;;;;;;22.17;11.93;;;4.50;93.00;;;;;;5002737;28;20559;-96
2020/12/08 15:55:18;;;;;;;21.63;12.27;;;4.50;93.10;;;;;;5037688;28;20059;-95
2020/12/08 15:57:46;;;;;;;24.88;12.23;;;4.30;93.20;;;;;;5020748;28;20101;-92
2020/12/08 16:05:27;;;;;;;22.52;12.40;;;4.00;94.40;;;;;;5822835;22;20497;-95
2020/12/08 16:07:53;;;;;;;22.83;12.00;;;4.00;94.30;;;;;;5051978;28;20060;-92
2020/12/08 16:10:21;;;;;;;22.83;12.27;;;4.00;94.30;;;;;;5045048;28;20391;-90
2020/12/08 16:18:51;;;;;;;20.42;11.38;;;3.90;94.60;;;;;;5436505;23;20041;-94
2020/12/08 16:21:18;;;;;;;21.85;12.45;;;3.80;94.80;;;;;;5014025;28;20049;-95
2020/12/08 16:23:46;;;;;;;20.55;11.57;;;3.90;95.00;;;;;;5031775;28;20049;-90
2020/12/08 16:26:15;;;;;;;21.35;12.55;;;4.00;95.00;;;;;;5030943;28;20054;-89
2020/12/08 16:28:43;;;;;;;22.30;11.70;;;3.80;95.00;;;;;;5014825;28;20050;-90
2020/12/08 16:31:14;;;;;;;21.40;11.80;;;3.80;95.10;;;;;;5027954;28;20054;-91
2020/12/08 16:33:42;;;;;;;24.83;12.27;;;3.80;95.00;;;;;;5010363;28;20049;-91
2020/12/08 16:36:08;;;;;;;20.92;11.85;;;3.80;95.00;;;;;;5022720;28;20510;-90
2020/12/08 16:38:36;;;;;;;21.55;11.30;;;3.70;95.00;;;;;;5026096;28;20117;-90
2020/12/08 16:41:02;;;;;;;22.02;11.77;;;3.70;95.20;;;;;;5025352;28;20063;-87
2020/12/08 16:43:29;;;;;;;19.83;10.38;;;3.60;95.30;;;;;;5006278;28;20141;-89
2020/12/08 16:45:57;;;;;;;19.88;11.23;;;3.60;95.30;;;;;;5004306;28;20473;-89
2020/12/08 16:48:23;;;;;;;21.83;11.80;;;3.60;95.40;;;;;;5004053;28;20081;-89
2020/12/08 16:50:50;;;;;;;20.63;11.38;;;3.60;95.40;;;;;;5006897;28;20161;-89
2020/12/08 16:53:17;;;;;;;22.23;12.55;;;3.70;95.50;;;;;;5003213;28;20086;-89
2020/12/08 16:55:45;;;;;;;21.92;11.25;;;3.70;95.40;;;;;;4983589;28;20052;-91
2020/12/08 16:58:13;;;;;;;21.63;12.30;;;3.70;95.40;;;;;;4999111;28;20492;-90
2020/12/08 17:00:39;;;;;;;21.92;11.55;;;3.70;95.50;;;;;;4980521;28;20141;-88
2020/12/08 18:56:45;;;;;;;30.30;16.75;;;3.30;96.40;;;;;;5968172;23;20124;-87
2020/12/08 18:59:12;;;;;;;28.67;15.88;;;3.30;96.40;;;;;;5007965;28;20122;-90
2020/12/08 19:01:39;;;;;;;28.95;15.93;;;3.30;96.50;;;;;;4974091;28;20060;-89
2020/12/08 19:04:09;;;;;;;29.38;16.35;;;3.40;96.40;;;;;;5007103;28;20106;-88
2020/12/08 19:06:41;;;;;;;31.80;16.75;;;3.50;96.40;;;;;;4992906;28;20103;-87
2020/12/08 19:09:09;;;;;;;32.28;18.52;;;3.40;96.30;;;;;;5021598;28;20550;-90
2020/12/08 19:11:45;;;;;;;32.55;19.05;;;3.40;96.20;;;;;;5018397;28;20456;-84
2020/12/08 19:14:13;;;;;;;34.38;16.83;;;3.40;96.20;;;;;;5019488;28;20136;-80
2020/12/08 19:16:43;;;;;;;27.17;15.60;;;3.40;96.20;;;;;;5005999;28;20053;-89
2020/12/08 19:19:10;;;;;;;32.58;16.23;;;3.50;96.20;;;;;;5019774;28;20077;-84
2020/12/08 19:21:43;;;;;;;26.98;14.90;;;3.40;96.00;;;;;;5019825;28;20045;-79
2020/12/08 19:24:11;;;;;;;25.27;14.30;;;3.40;96.00;;;;;;5003218;28;20129;-80
2020/12/08 19:26:39;;;;;;;30.08;15.05;;;3.30;96.30;;;;;;5025705;28;20085;-84
2020/12/08 19:29:07;;;;;;;25.42;14.40;;;3.20;96.50;;;;;;5024980;28;20073;-82
2020/12/08 19:31:41;;;;;;;26.80;15.15;;;3.10;96.60;;;;;;5004408;28;20074;-79
2020/12/08 19:34:09;;;;;;;26.98;14.85;;;3.00;96.70;;;;;;5032428;28;20085;-80
2020/12/08 19:39:14;;;;;;;32.88;16.77;;;2.90;97.30;;;;;;5960489;22;20053;-87
2020/12/08 19:41:48;;;;;;;35.63;19.17;;;2.90;97.40;;;;;;5024347;28;20062;-88
2020/12/08 19:44:18;;;;;;;32.90;17.97;;;3.00;97.70;;;;;;5006978;28;20050;-84
2020/12/08 19:46:46;;;;;;;28.70;16.15;;;3.00;97.30;;;;;;5005554;28;20369;-86
2020/12/08 19:49:13;;;;;;;38.67;19.38;;;3.00;97.20;;;;;;5002066;28;20042;-85
2020/12/08 19:51:42;;;;;;;27.55;15.63;;;3.10;97.10;;;;;;5001492;28;20546;-85
2020/12/08 19:54:10;;;;;;;29.05;16.02;;;3.10;97.00;;;;;;5004737;28;20074;-80
2020/12/08 19:56:42;;;;;;;28.30;16.45;;;3.00;96.90;;;;;;5010661;28;20057;-81
2020/12/08 19:59:12;;;;;;;29.17;15.80;;;2.90;97.20;;;;;;5021398;28;20046;-83
2020/12/08 20:01:42;;;;;;;27.52;15.75;;;2.80;97.50;;;;;;4988890;28;20081;-82
2020/12/08 20:04:14;;;;;;;29.35;16.17;;;2.80;97.80;;;;;;4998259;28;20046;-82
2020/12/08 20:24:56;;;;;;;32.38;17.45;;;2.90;97.60;;;;;;5189640;23;20286;-83
2020/12/08 20:27:24;;;;;;;32.75;18.60;;;3.00;97.40;;;;;;4994417;28;20058;-84
2020/12/08 20:29:50;;;;;;;32.88;18.88;;;3.10;97.30;;;;;;5002130;28;20050;-84
2020/12/08 20:32:17;;;;;;;37.33;19.92;;;3.10;97.20;;;;;;5017507;28;20077;-83
2020/12/08 20:34:45;;;;;;;38.97;21.58;;;3.10;97.00;;;;;;5017297;28;20078;-87
2020/12/08 20:37:12;;;;;;;35.80;21.17;;;3.20;97.00;;;;;;5000962;28;20101;-87
2020/12/08 20:39:39;;;;;;;42.70;22.10;;;3.20;96.90;;;;;;5016100;28;20069;-86
2020/12/08 20:42:07;;;;;;;35.72;19.95;;;3.30;96.90;;;;;;5003007;28;20054;-86
2020/12/08 20:44:37;;;;;;;34.00;19.58;;;3.20;97.30;;;;;;5000209;28;20057;-85
2020/12/08 20:47:05;;;;;;;38.22;20.98;;;3.30;97.00;;;;;;5011728;28;20078;-85
2020/12/08 20:49:32;;;;;;;38.63;20.90;;;3.20;96.90;;;;;;5020501;28;20040;-84
2020/12/08 21:12:44;;;;;;;31.50;17.60;;;2.90;97.90;;;;;;5477353;23;20046;-86
2020/12/08 21:30:44;;;;;;;36.08;19.95;;;3.30;97.50;;;;;;5445868;23;20053;-91
2020/12/08 21:33:11;;;;;;;34.72;19.60;;;3.40;97.30;;;;;;5002161;28;20515;-91
2020/12/08 21:35:38;;;;;;;35.53;19.48;;;3.50;97.20;;;;;;5023481;28;20133;-92
2020/12/08 21:38:05;;;;;;;35.53;19.27;;;3.50;97.00;;;;;;5007437;28;20053;-91
2020/12/08 21:40:32;;;;;;;31.38;17.27;;;3.60;97.20;;;;;;5017150;28;20057;-91
2020/12/08 21:42:58;;;;;;;30.83;17.35;;;3.60;96.90;;;;;;5005380;28;20085;-92
2020/12/08 21:45:25;;;;;;;32.35;18.17;;;3.60;96.80;;;;;;5015599;28;20136;-91
2020/12/08 21:47:53;;;;;;;31.75;17.80;;;3.60;96.60;;;;;;5017664;28;20141;-92
2020/12/08 21:50:20;;;;;;;32.90;19.33;;;3.60;96.50;;;;;;5005151;28;20132;-90
2020/12/08 21:52:49;;;;;;;35.20;20.25;;;3.60;96.60;;;;;;4998863;28;20070;-89
2020/12/08 21:55:18;;;;;;;33.92;19.10;;;3.60;96.80;;;;;;5028105;28;20060;-90
2020/12/08 21:57:46;;;;;;;34.47;19.98;;;3.50;96.90;;;;;;5026090;28;20068;-91
2020/12/08 22:00:14;;;;;;;33.13;19.27;;;3.50;96.90;;;;;;5029862;28;20077;-92
2020/12/08 22:02:42;;;;;;;33.05;18.63;;;3.50;96.90;;;;;;5030714;28;20050;-92
2020/12/08 22:05:10;;;;;;;34.72;19.70;;;3.50;97.00;;;;;;5009334;28;20129;-92
2020/12/08 22:07:39;;;;;;;32.90;18.63;;;3.50;97.00;;;;;;5022749;28;20117;-91
2020/12/08 22:10:08;;;;;;;30.67;18.67;;;3.60;97.10;;;;;;5020305;28;20118;-93
2020/12/08 22:12:35;;;;;;;34.58;19.27;;;3.60;97.20;;;;;;5002670;28;20140;-92
2020/12/08 22:15:02;;;;;;;32.45;19.13;;;3.60;96.90;;;;;;5021565;28;20718;-88
2020/12/08 22:17:29;;;;;;;31.70;19.13;;;3.60;96.90;;;;;;5022562;28;20145;-93
2020/12/08 22:19:56;;;;;;;34.63;18.85;;;3.60;97.20;;;;;;5007778;28;20106;-93
2020/12/08 22:22:26;;;;;;;30.02;17.65;;;3.70;96.90;;;;;;5024620;28;20084;-92
2020/12/08 22:24:53;;;;;;;33.50;18.40;;;3.70;97.00;;;;;;5023215;28;20081;-92
2020/12/08 22:27:21;;;;;;;30.63;17.45;;;3.60;96.90;;;;;;4998209;28;20052;-92
2020/12/08 22:29:49;;;;;;;32.20;17.10;;;3.60;97.00;;;;;;5021293;28;20492;-92
2020/12/08 22:32:16;;;;;;;30.48;17.35;;;3.60;97.10;;;;;;5019489;28;20077;-93
2020/12/08 22:34:42;;;;;;;31.13;18.40;;;3.70;97.10;;;;;;4992014;28;20121;-91
